createdAt,value
2023-01-08T00:07:42.698Z,76056.13
2023-01-08T00:17:46.639Z,76068.28
2023-01-08T00:27:55.373Z,76086.47
2023-01-08T00:38:04.698Z,76078.38
2023-01-08T00:48:14.454Z,76090.53
2023-01-08T00:58:24.359Z,76108.75
2023-01-08T01:08:28.031Z,76116.84
2023-01-08T01:18:35.545Z,76118.88
2023-01-08T01:28:45.915Z,76133.03
2023-01-08T01:38:49.901Z,76126.97
2023-01-08T01:48:55.565Z,76124.94
2023-01-08T01:58:58.301Z,76114.81
2023-01-08T02:09:06.519Z,76094.59
2023-01-08T02:19:23.153Z,76078.38
2023-01-08T02:29:29.540Z,76058.16
2023-01-08T02:40:08.069Z,76043.97
2023-01-08T02:50:34.036Z,76031.84
2023-01-08T03:00:38.665Z,76054.09
2023-01-08T03:10:43.595Z,76080.41
2023-01-08T03:20:48.704Z,76100.66
2023-01-08T03:30:53.884Z,76139.09
2023-01-08T03:41:06.291Z,76147.22
2023-01-08T03:51:12.615Z,76151.25
2023-01-08T04:01:19.297Z,76147.22
2023-01-08T04:11:26.815Z,76147.22
2023-01-08T04:21:33.637Z,76147.22
2023-01-08T04:31:35.833Z,76114.81
2023-01-08T04:41:43.379Z,76106.72
2023-01-08T04:51:49.147Z,76131.00
2023-01-08T05:01:51.575Z,76139.09
2023-01-08T05:11:56.242Z,76118.88
2023-01-08T05:21:58.695Z,76106.72
2023-01-08T05:32:06.951Z,76118.88
2023-01-08T05:42:16.633Z,76131.00
2023-01-08T05:52:22.813Z,76118.88
2023-01-08T06:02:34.363Z,76131.00
2023-01-08T06:12:39.797Z,76131.00
2023-01-08T06:22:44.226Z,76141.13
2023-01-08T06:32:49.109Z,76118.88
2023-01-08T06:42:53.549Z,76114.81
2023-01-08T06:52:57.817Z,76118.88
2023-01-08T07:03:01.889Z,76092.56
2023-01-08T07:13:12.013Z,76112.78
2023-01-08T07:23:17.303Z,76110.78
2023-01-08T07:33:22.175Z,76120.91
2023-01-08T07:43:30.198Z,76122.91
2023-01-08T07:53:45.629Z,76110.78
2023-01-08T08:03:55.131Z,76096.59
2023-01-08T08:13:57.329Z,76098.63
2023-01-08T08:23:59.689Z,76090.53
2023-01-08T08:34:02.332Z,76080.41
2023-01-08T08:44:05.534Z,76054.09
2023-01-08T08:54:12.835Z,76033.88
2023-01-08T09:04:16.317Z,76017.66
2023-01-08T09:14:23.463Z,76013.63
2023-01-08T09:24:35.203Z,76017.66
2023-01-08T09:34:39.838Z,75995.41
2023-01-08T09:44:46.255Z,75969.09
2023-01-08T09:54:55.069Z,75936.72
2023-01-08T10:05:05.042Z,75914.44
2023-01-08T10:15:11.353Z,75900.28
2023-01-08T10:25:26.271Z,75876.00
2023-01-08T10:35:38.114Z,75859.81
2023-01-08T10:45:47.707Z,75882.06
2023-01-08T10:56:01.103Z,75880.03
2023-01-08T11:06:14.849Z,75892.19
2023-01-08T11:16:24.054Z,75884.09
2023-01-08T11:26:32.010Z,75884.09
2023-01-08T11:36:37.517Z,75857.78
2023-01-08T11:46:57.571Z,75851.72
2023-01-08T11:57:34.435Z,75859.81
2023-01-08T12:08:23.209Z,75859.81
2023-01-08T12:19:03.777Z,75849.69
2023-01-08T12:29:06.938Z,75843.63
2023-01-08T12:39:21.481Z,75845.63
2023-01-08T12:49:40.939Z,75855.75
2023-01-08T13:00:52.040Z,75863.84
2023-01-08T13:10:57.918Z,75878.03
2023-01-08T13:21:07.585Z,75882.06
2023-01-08T13:31:23.357Z,75867.91
2023-01-08T13:41:36.525Z,75863.84
2023-01-08T13:51:42.308Z,75871.94
2023-01-08T14:01:57.838Z,75878.03
2023-01-08T14:12:01.538Z,75902.31
2023-01-08T14:22:09.358Z,75888.13
2023-01-08T14:32:21.599Z,75892.19
2023-01-08T14:42:50.368Z,75900.28
2023-01-08T14:53:08.307Z,75886.13
2023-01-08T15:03:41.378Z,75878.03
2023-01-08T15:13:44.836Z,75859.81
2023-01-08T15:23:56.793Z,75859.81
2023-01-08T15:34:03.908Z,75865.88
2023-01-08T15:44:17.058Z,75857.78
2023-01-08T15:54:34.462Z,75843.63
2023-01-08T16:04:38.984Z,75849.69
2023-01-08T16:14:49.288Z,75823.38
2023-01-08T16:24:52.305Z,75829.44
2023-01-08T16:35:02.834Z,75819.31
2023-01-08T16:45:08.770Z,75803.13
2023-01-08T16:55:15.550Z,75823.38
2023-01-08T17:05:23.320Z,75811.22
2023-01-08T17:15:26.062Z,75803.13
2023-01-08T17:25:29.917Z,75795.03
2023-01-08T17:35:40.015Z,75786.94
2023-01-08T17:45:43.184Z,75784.91
2023-01-08T17:55:57.446Z,75756.59
2023-01-08T18:06:20.756Z,75746.47
2023-01-08T18:16:36.172Z,75740.41
2023-01-08T18:26:38.923Z,75742.41
2023-01-08T18:36:50.276Z,75734.31
2023-01-08T18:46:54.309Z,75746.47
2023-01-08T18:56:58.093Z,75730.28
2023-01-08T19:07:01.856Z,75718.13
2023-01-08T19:17:04.104Z,75710.03
2023-01-08T19:27:06.312Z,75699.91
2023-01-08T19:37:15.135Z,75697.91
2023-01-08T19:47:17.184Z,75685.75
2023-01-08T19:57:19.241Z,75697.91
2023-01-08T20:07:26.033Z,75685.75
2023-01-08T20:17:30.886Z,75677.66
2023-01-08T20:27:35.404Z,75649.31
2023-01-08T20:37:39.795Z,75633.13
2023-01-08T20:47:42.597Z,75614.94
2023-01-08T20:57:44.675Z,75604.81
2023-01-08T21:07:49.354Z,75592.66
2023-01-08T21:17:51.756Z,75568.38
2023-01-08T21:27:56.136Z,75564.34
2023-01-08T21:38:00.516Z,75540.03
2023-01-08T21:48:02.825Z,75542.06
2023-01-08T21:58:09.626Z,75531.94
2023-01-08T22:08:18.555Z,75527.91
2023-01-08T22:18:20.774Z,75519.81
2023-01-08T22:28:27.182Z,75513.75
2023-01-08T22:38:29.389Z,75503.63
2023-01-08T22:48:33.805Z,75493.50
2023-01-08T22:58:35.986Z,75475.28
2023-01-08T23:08:38.781Z,75469.22
2023-01-08T23:18:44.045Z,75459.09
2023-01-08T23:28:52.545Z,75455.06
2023-01-08T23:38:58.064Z,75436.84
2023-01-08T23:49:00.250Z,75434.81
2023-01-08T23:59:04.646Z,75412.56
